MyFlightRoute - Storm Chaser


To sort multiple columns, hold SHIFT key while clicking column header

ICAOVisibilityWindSpeedGustCeilingWeatherTempDew PointSpreadFlight CategoryMETAR
KABQ10.009 18.90-7.2026.1VFRKABQ 080152Z 18009KT 10SM SCT130 19/M07 A3003 RMK AO2 SLP115 T01891072
KAMA10.009 18.30-1.7020VFRKAMA 080153Z 20009KT 10SM CLR 18/M02 A2987 RMK AO2 SLP080 T01831017
KAPA10.004 17.20-10.0027.2VFRKAPA 080153Z 14004KT 10SM FEW110 FEW220 17/M10 A2996 RMK AO2 SLP099 T01721100
KASE10.008 9.40-10.6020VFRKASE 080153Z 17008KT 10SM CLR 09/M11 A3010 RMK AO2 SLP129 T00941106
KBFI10.004 12.801.7011.1VFRKBFI 080153Z 32004KT 10SM FEW250 13/02 A3024 RMK AO2 SLP239 T01280017
KBFL2.507 500HEAVY RAIN MIST 11.7010.001.7IFRKBFL 080219Z 24007KT 2 1/2SM +RA BR BKN005 BKN009 OVC038 12/10 A2995 RMK AO2 P0009 T01170100
KBIL10.009 1600012.80-5.0017.8VFRKBIL 080153Z 33009KT 10SM BKN160 13/M05 A2982 RMK AO2 SLP094 T01281050
KBOI10.0010 16.101.1015VFRKBOI 080153Z 34010KT 10SM CLR 16/01 A3002 RMK AO2 SLP161 T01610011
KBUR2.008 700HEAVY RAIN MIST 9.407.801.6IFRKBUR 080208Z AUTO 30008KT 2SM +RA BR OVC007 09/08 A2989 RMK AO2 P0001 T00940078
KBZN10.0012 13.30-5.6018.9VFRKBZN 080156Z 27012KT 10SM CLR 13/M06 A2990 RMK AO2 SLP117 T01331056
KCMA5.001419 4100RAIN 12.208.303.9MVFRKCMA 080155Z 28014G19KT 5SM RA BKN041 OVC055 12/08 A2994 RMK AO2 SLP146 P0004 T01220083
KCNO9.007 1000LIGHT RAIN 14.4011.702.7MVFRKCNO 080153Z 24007KT 9SM -RA BKN010 BKN015 OVC037 14/12 A2994 RMK AO2 SLP136 P0008 T01440117
KCOS10.006 18.30-16.1034.4VFRKCOS 080154Z 31006KT 10SM FEW150 18/M16 A2998 RMK AO2 SLP089 T01831161
KCPR10.0014 11.10-6.7017.8VFRKCPR 080153Z 27014KT 10SM CLR 11/M07 A2991 RMK AO2 PK WND 28027/0058 SLP102 T01111067
KCRQ10.001629 260013.908.305.6MVFRKCRQ 080153Z AUTO 15016G29KT 10SM BKN026 14/08 A2996 RMK AO2 PK WND 17029/0106 SLP144 T01390083
KDEN10.0012 17.80-10.0027.8VFRKDEN 080153Z 31012KT 10SM FEW085 SCT130 18/M10 A2993 RMK AO2 SLP082 T01781100
KEGE10.004 12.80-10.6023.4VFRKEGE 080156Z AUTO 18004KT 10SM CLR 13/M11 A3008 RMK AO2 SLP180 T01281106
KELP10.0010 2500023.302.2021.1VFRKELP 080151Z 25010KT 10SM FEW100 FEW150 BKN250 23/02 A3003 RMK AO2 SLP114 CB DSNT W-NW T02330022
KEMT2.5010 2800HEAVY RAIN 14.0013.001IFRKEMT 080145Z 09010KT 2 1/2SM +RA BKN028 OVC050 14/13 A2991
KEUG10.009 13.905.608.3VFRKEUG 080154Z 02009KT 10SM CLR 14/06 A3016 RMK AO2 SLP213 T01390056
KFAT10.0013 2000017.205.6011.6VFRKFAT 080153Z 32013KT 10SM FEW050 SCT150 BKN200 17/06 A2992 RMK AO2 SLP131 T01720056
KFLG10.004 8.90-5.6014.5VFRKFLG 080157Z 21004KT 10SM CLR 09/M06 A3014 RMK AO2 SLP178 T00891056
KFMN10.003 16.70-10.0026.7VFRKFMN 080153Z AUTO 36003KT 10SM CLR 17/M10 A3005 RMK AO2 SLP151 T01671100
KFUL10.00718 1600LIGHT RAIN 11.708.902.8MVFRKFUL 080229Z 22007G18KT 10SM -RA SCT010 BKN016 OVC026 12/09 A2995 RMK AO2 P0001 T01170089 $
KGCN10.007 10.00-6.7016.7VFRKGCN 080154Z AUTO 20007KT 10SM CLR 10/M07 A3011 RMK AO2 SLP179 T01001067
KGEG10.008 14.40-2.8017.2VFRKGEG 080153Z 25008KT 10SM FEW060 FEW240 14/M03 A3003 RMK AO2 SLP173 T01441028
KGJT10.005 15.00-12.8027.8VFRKGJT 080153Z 36005KT 10SM CLR 15/M13 A3000 RMK AO2 SLP127 T01501128
KGPI10.004 11.10-6.7017.8VFRKGPI 080155Z 26004KT 10SM CLR 11/M07 A2995 RMK AO2 SLP148 T01111067
KHHR2.5014 1200LIGHT RAIN MIST 11.709.402.3IFRKHHR 080200Z 27014KT 2 1/2SM -RA BR SCT009 BKN012 OVC031 12/09 A2993 RMK AO2 P0001 T01170094 $
KHLN10.0010 13.30-6.1019.4VFRKHLN 080153Z 30010KT 10SM CLR 13/M06 A2989 RMK AO2 SLP134 T01331061
KHND10.003 16.106.1010VFRKHND 080156Z 36003KT 10SM CLR 16/06 A2997 RMK AO2 SLP159 T01610061
KIFP10.000 24.007.0017VFRKIFP 080215Z AUTO 00000KT 10SM CLR 24/07 A2988 RMK AO2
KINS10.000 12.906.506.4VFRKINS 080158Z AUTO 00000KT 10SM CLR 13/07 A2997 RMK AO2 SLP132 T01290065 $
KJAC10.0010 60006.10-1.707.8VFRKJAC 080156Z 20010KT 10SM BKN060 BKN075 06/M02 A3005 RMK AO2 SLP180 T00611017
KLAS10.005 17.206.7010.5VFRKLAS 080156Z 35005KT 10SM FEW095 17/07 A2995 RMK AO2 SLP133 T01720067
KLAX8.0021 1400LIGHT RAIN 12.208.903.3MVFRKLAX 080231Z 27021KT 8SM -RA BKN014 OVC021 12/09 A2994 RMK AO2 PK WND 28026/0231 P0002 T01220089
KLGB4.001322 2000LIGHT RAIN MIST 10.608.901.7MVFRKLGB 080211Z 26013G22KT 4SM -RA BR SCT013 BKN020 OVC055 11/09 A2994 RMK AO2 P0002 T01060089
KLSV10.009 18.206.1012.1VFRKLSV 080158Z AUTO 25009KT 10SM CLR 18/06 A2994 RMK AO2 SLP130 T01820061 $
KMFR10.007 19.404.4015VFRKMFR 080153Z 28007KT 10SM CLR 19/04 A3003 RMK AO2 SLP167 T01940044
KMHV6.0012 3700MIST 8.008.000VFRKMHV 080200Z AUTO 02012KT 6SM BR FEW027 SCT032 BKN037 08/08 A2992 RMK A01 P0004
KMRY10.008 14.406.707.7VFRKMRY 080154Z 28008KT 10SM FEW065 14/07 A3002 RMK AO2 SLP177 T01440067
KMSO10.001322 13.90-3.9017.8VFRKMSO 072053Z 34013G22KT 10SM FEW075 14/M04 A2995 RMK AO2 SLP147 T01391039 56010
KMYF8.0011 2800LIGHT RAIN 12.8010.002.8MVFRKMYF 080231Z 19011KT 8SM -RA SCT012 BKN028 OVC039 13/10 A3002 RMK AO2 RAB29 P0000 T01280100
KNYL10.0010 23.300.0023.3VFRKNYL 080157Z AUTO 15010KT 10SM CLR 23/00 A2989 RMK AO2 SLP120 T02330000 $
KOAK10.0013 16.106.1010VFRKOAK 080153Z 29013KT 10SM FEW030 16/06 A3002 RMK AO2 SLP166 T01610061 $
KOLM10.006 12.203.308.9VFRKOLM 080154Z 04006KT 10SM CLR 12/03 A3023 RMK AO2 SLP239 T01220033
KONT10.009 480013.3011.701.6VFRKONT 080204Z 10009KT 10SM FEW013 SCT018 BKN048 13/12 A2992 RMK AO2 RAE02 VCSH P0000 T01330117 $
KOTH10.002127 10.006.103.9VFRKOTH 080156Z 36021G27KT 10SM CLR 10/06 A3019 RMK AO2 PK WND 36028/0116 SLP222 T01000061 $
KOXR10.0018 470010.607.802.8VFRKOXR 080151Z 29018KT 10SM OVC047 11/08 A2994 RMK AO2 RAE44 SLP139 P0002 T01060078
KPAE10.005 10.602.807.8VFRKPAE 080153Z 25005KT 10SM CLR 11/03 A3025 RMK AO2 SLP245 T01060028
KPDX10.00616 15.003.3011.7VFRKPDX 080153Z 34006G16KT 10SM FEW200 15/03 A3019 RMK AO2 SLP222 T01500033
KPHX10.0012 26.701.1025.6VFRKPHX 080151Z 27012KT 10SM FEW100 27/01 A2988 RMK AO2 SLP105 T02670011
KPOC10.009 2500LIGHT RAIN 12.0011.001MVFRKPOC 080147Z 15009KT 10SM -RA FEW010 BKN025 OVC035 12/11 A2994
KPRC10.008 13.90-5.0018.9VFRKPRC 080153Z 14008KT 10SM CLR 14/M05 A3007 RMK AO2 SLP150 T01391050
KPSC10.006 20.60-3.3023.9VFRKPSC 080153Z 25006KT 10SM CLR 21/M03 A3002 RMK AO2 SLP164 T02061033
KPSP3.004 5500LIGHT RAIN MIST 15.0013.301.7MVFRKPSP 080200Z 25004KT 3SM -RA BR BKN055 OVC065 15/13 A2995 RMK AO2 P0000 T01500133
KRAL10.001221 600013.308.305VFRKRAL 080153Z 16012G21KT 10SM SCT033 BKN060 13/08 A2994 RMK AO2 RAE46 SLP129 P0004 T01330083
KRDD10.008 17.209.407.8VFRKRDD 080153Z 14008KT 10SM SCT110 17/09 A2999 RMK AO2 SLP156 T01720094
KRIV10.001423 370012.009.003VFRKRIV 080219Z 14014G23KT 10SM FEW020 SCT028 BKN037 12/09 A2995 RMK AO2A SLP141
KRNM10.001318 220011.708.303.4MVFRKRNM 080153Z 18013G18KT 10SM BKN022 BKN070 12/08 A3000 RMK AO2 RAB27E36 SLP153 P0000 T01170083
KRNO10.006 11.70-2.2013.9VFRKRNO 080155Z 08006KT 10SM SCT080 SCT120 12/M02 A3003 RMK AO2 SLP155 T01171022
KSAC10.006 17.806.7011.1VFRKSAC 080153Z 31006KT 10SM CLR 18/07 A3000 RMK AO2 SLP159 T01780067
KSAN10.0013 230015.6012.802.8MVFRKSAN 080151Z COR 20013KT 10SM SCT012 BKN023 BKN034 16/13 A3003 RMK AO2 PK WND 19027/0052 RAB19E29 SLP170 VCSH P0000 T01560128
KSBA6.007 4700LIGHT RAIN MIST 10.008.301.7VFRKSBA 080153Z 28007KT 6SM -RA BR OVC047 10/08 A2997 RMK AO2 SLP150 P0004 T01000083
KSBD3.000 1100HEAVY RAIN 14.0011.003MVFRKSBD 080149Z 00000KT 3SM +RA BKN011 OVC025 14/11 A2995
KSBP10.007 1000011.705.006.7VFRKSBP 080156Z 31007KT 10SM SCT055 SCT070 OVC100 12/05 A2997 RMK AO2 SLP150 T01170050
KSDM7.001321 4100LIGHT RAIN 12.809.403.4VFRKSDM 080153Z 21013G21KT 7SM -RA FEW017 SCT034 BKN041 13/09 A3001 RMK AO2 RAB52 SLP161 P0000 T01280094
KSEA10.006 12.202.2010VFRKSEA 080153Z 28006KT 10SM FEW250 12/02 A3024 RMK AO2 SLP247 T01220022
KSEE10.001016 280014.0010.004MVFRKSEE 080147Z 20010G16KT 10SM FEW018 BKN028 OVC039 14/10 A3002
KSFO10.0021 12.806.106.7VFRKSFO 080156Z 28021KT 10SM FEW028 13/06 A3002 RMK AO2 SLP166 T01280061
KSJC10.0012 15.005.0010VFRKSJC 080153Z 34012KT 10SM FEW032 FEW047 FEW090 15/05 A3000 RMK AO2 SLP159 T01500050
KSLC10.007 14.001.0013VFRKSLC 080154Z 36007KT 10SM FEW095 SCT120 14/01 A3002
KSMF10.000 18.306.1012.2VFRKSMF 080153Z 00000KT 10SM FEW050 18/06 A3000 RMK AO2 SLP159 T01830061
KSMO4.006 2600LIGHT RAIN MIST 10.609.401.2MVFRKSMO 080151Z 26006KT 4SM -RA BR OVC026 11/09 A2991 RMK AO2 SLP127 P0012 T01060094
KSMX10.006 470010.607.802.8VFRKSMX 080151Z 29006KT 10SM BKN047 BKN065 OVC085 11/08 A2999 RMK AO2 RAE21 SLP161 P0000 T01060078
KSNA4.0010 800LIGHT RAIN MIST 13.309.403.9IFRKSNA 080218Z 25010KT 4SM -RA BR BKN008 BKN018TCU OVC042 13/09 A2996 RMK AO2 TCU NE P0002 T01330094 $
KSUN10.007 12.00-2.0014VFRKSUN 080147Z 25007KT 10SM SKC 12/M02 A3005
KTOA2.002025 1200LIGHT RAIN 11.0011.000IFRKTOA 080147Z 25020G25KT 2SM -RA OVC012 11/11 A2993
KTPH10.000 39007.801.706.1VFRKTPH 080156Z AUTO 00000KT 10SM BKN039 08/02 A3004 RMK AO2 SLP167 T00780017
KTUS10.0010 24.401.7022.7VFRKTUS 080153Z 24010KT 10SM CLR 24/02 A2998 RMK AO2 SLP119 T02440017
KVCV3.004 1100LIGHT RAIN 0.000.000MVFRKVCV 080147Z 15004KT 3SM -RA OVC011 A2994
KVGT10.0011 16.705.6011.1VFRKVGT 080153Z 32011KT 10SM CLR 17/06 A2994 RMK AO2 SLP151 T01670056
KVNY1.756 3000HEAVY RAIN 10.607.802.8IFRKVNY 080225Z 25006KT 1 3/4SM +RA FEW009 BKN030 OVC035 11/08 A2990 RMK AO2 P0017 T01060078
KWHP1.508 700RAIN 9.009.000IFRKWHP 080155Z 23008KT 1 1/2SM RA OVC007 09/09 A2991
KWJF9.007 1600LIGHT RAIN 9.408.301.1MVFRKWJF 080215Z 05007KT 9SM -RA SCT010 BKN016 OVC029 09/08 A2992 RMK AO2 RAE04B10 P0002 T00940083
KYKM10.001420 18.90-13.3032.2VFRKYKM 080153Z 34014G20KT 10SM CLR 19/M13 A3004 RMK AO2 SLP175 T01891133